createdAt,value
2019-04-29T00:02:22.401Z,3.87
2019-04-29T00:04:50.969Z,4.20
2019-04-29T00:07:20.022Z,4.15
2019-04-29T00:09:48.619Z,4.22
2019-04-29T00:12:17.986Z,3.45
2019-04-29T00:14:49.006Z,3.60
2019-04-29T00:17:28.473Z,3.58
2019-04-29T00:20:01.518Z,4.12
2019-04-29T00:22:30.199Z,4.30
2019-04-29T00:24:58.852Z,3.95
2019-04-29T00:27:27.516Z,3.80
2019-04-29T00:29:56.174Z,4.65
2019-04-29T00:32:24.768Z,4.55
2019-04-29T00:34:53.371Z,3.50
2019-04-29T00:37:23.600Z,4.30
2019-04-29T00:40:10.034Z,4.55
2019-04-29T00:42:44.510Z,4.40
2019-04-29T00:45:14.609Z,4.00
2019-04-29T00:47:43.212Z,4.05
2019-04-29T00:50:12.509Z,3.92
2019-04-29T00:52:41.109Z,4.15
2019-04-29T00:55:14.331Z,4.05
2019-04-29T00:57:42.929Z,4.10
2019-04-29T01:00:14.869Z,4.55
2019-04-29T01:02:47.868Z,5.00
2019-04-29T01:05:16.464Z,3.70
2019-04-29T01:07:45.067Z,3.60
2019-04-29T01:10:14.159Z,3.83
2019-04-29T01:12:42.819Z,3.87
2019-04-29T01:15:12.024Z,4.40
2019-04-29T01:17:40.645Z,3.85
2019-04-29T01:20:10.421Z,3.92
2019-04-29T01:22:39.016Z,4.20
2019-04-29T01:25:07.776Z,4.55
2019-04-29T01:27:44.031Z,4.10
2019-04-29T01:30:15.669Z,3.62
2019-04-29T01:32:44.272Z,3.52
2019-04-29T01:35:12.874Z,4.05
2019-04-29T01:37:42.260Z,4.67
2019-04-29T01:40:16.061Z,3.58
2019-04-29T01:42:45.132Z,4.10
2019-04-29T01:45:13.753Z,4.25
2019-04-29T01:47:44.075Z,4.40
2019-04-29T01:50:12.977Z,5.60
2019-04-29T01:52:41.573Z,4.35
2019-04-29T01:55:10.179Z,3.67
2019-04-29T01:57:38.781Z,4.10
2019-04-29T02:00:12.263Z,4.17
2019-04-29T02:02:40.487Z,3.40
2019-04-29T02:05:09.093Z,4.72
2019-04-29T02:07:37.637Z,4.12
2019-04-29T02:10:14.269Z,4.87
2019-04-29T02:12:42.729Z,3.80
2019-04-29T02:15:11.637Z,4.17
2019-04-29T02:17:40.296Z,2.62
2019-04-29T02:20:09.658Z,3.33
2019-04-29T02:22:51.704Z,3.60
2019-04-29T02:25:21.930Z,3.85
2019-04-29T02:27:50.526Z,3.37
2019-04-29T02:30:30.975Z,3.83
2019-04-29T02:33:00.943Z,4.40
2019-04-29T02:35:29.571Z,5.53
2019-04-29T02:37:58.303Z,3.40
2019-04-29T02:40:28.405Z,4.28
2019-04-29T02:43:04.609Z,3.30
2019-04-29T02:45:34.806Z,3.55
2019-04-29T02:48:03.466Z,3.67
2019-04-29T02:50:32.158Z,4.90
2019-04-29T02:53:00.754Z,4.10
2019-04-29T02:55:30.984Z,4.67
2019-04-29T02:58:13.235Z,3.45
2019-04-29T03:00:59.731Z,3.83
2019-04-29T03:03:33.846Z,4.83
2019-04-29T03:06:04.123Z,3.70
2019-04-29T03:08:32.730Z,3.92
2019-04-29T03:11:01.350Z,3.40
2019-04-29T03:13:29.914Z,3.70
2019-04-29T03:16:01.185Z,3.85
2019-04-29T03:18:31.391Z,4.15
2019-04-29T03:21:07.648Z,3.25
2019-04-29T03:23:36.658Z,7.62
2019-04-29T03:26:05.270Z,4.05
2019-04-29T03:28:33.861Z,3.98
2019-04-29T03:31:02.534Z,3.52
2019-04-29T03:33:31.138Z,4.97
2019-04-29T03:35:59.723Z,3.85
2019-04-29T03:38:28.251Z,3.52
2019-04-29T03:40:56.728Z,3.52
2019-04-29T03:43:25.322Z,3.17
2019-04-29T03:45:53.884Z,3.75
2019-04-29T03:48:22.886Z,3.42
2019-04-29T03:50:51.498Z,3.45
2019-04-29T03:53:20.244Z,4.08
2019-04-29T03:55:50.485Z,3.30
2019-04-29T03:58:19.035Z,4.80
2019-04-29T04:00:49.257Z,4.20
2019-04-29T04:03:31.678Z,3.40
2019-04-29T04:06:10.995Z,3.50
2019-04-29T04:08:44.286Z,4.15
2019-04-29T04:11:12.884Z,3.40
2019-04-29T04:13:41.435Z,4.00
2019-04-29T04:16:11.912Z,4.28
2019-04-29T04:18:40.378Z,3.70
2019-04-29T04:21:08.979Z,4.15
2019-04-29T04:23:37.530Z,4.75
2019-04-29T04:26:06.214Z,4.08
2019-04-29T04:28:34.848Z,5.40
2019-04-29T04:31:06.742Z,4.22
2019-04-29T04:33:33.737Z,3.95
2019-04-29T04:36:02.347Z,4.70
2019-04-29T04:38:31.071Z,5.40
2019-04-29T04:41:03.667Z,6.83
2019-04-29T04:43:32.259Z,4.85
2019-04-29T04:46:00.797Z,5.70
2019-04-29T04:48:29.331Z,5.30
2019-04-29T04:50:57.958Z,5.75
2019-04-29T04:53:26.610Z,5.17
2019-04-29T04:55:56.838Z,5.55
2019-04-29T04:58:25.299Z,4.17
2019-04-29T05:00:53.967Z,6.58
2019-04-29T05:03:22.585Z,4.10
2019-04-29T05:05:51.188Z,5.55
2019-04-29T05:08:19.741Z,5.28
2019-04-29T05:10:48.571Z,4.58
2019-04-29T05:13:27.969Z,6.05
2019-04-29T05:15:47.483Z,3.95
2019-04-29T05:18:16.119Z,7.85
2019-04-29T05:20:44.825Z,4.47
2019-04-29T05:23:13.293Z,4.60
2019-04-29T05:25:41.822Z,5.33
2019-04-29T05:28:11.824Z,4.83
2019-04-29T05:30:40.359Z,4.28
2019-04-29T05:33:08.823Z,4.30
2019-04-29T05:35:40.363Z,5.45
2019-04-29T05:38:13.791Z,3.77
2019-04-29T05:40:44.209Z,4.65
2019-04-29T05:43:20.358Z,3.90
2019-04-29T05:46:07.475Z,3.62
2019-04-29T05:48:36.798Z,4.97
2019-04-29T05:51:07.099Z,3.50
2019-04-29T05:53:40.585Z,4.28
2019-04-29T05:56:09.038Z,5.00
2019-04-29T05:58:39.463Z,4.42
2019-04-29T06:01:09.564Z,4.97
2019-04-29T06:03:39.768Z,3.80
2019-04-29T06:06:08.708Z,3.95
2019-04-29T06:08:39.085Z,4.58
2019-04-29T06:11:09.086Z,5.67
2019-04-29T06:13:37.673Z,4.40
2019-04-29T06:16:06.288Z,4.28
2019-04-29T06:18:34.867Z,4.62
2019-04-29T06:21:09.423Z,4.78
2019-04-29T06:23:34.128Z,4.65
2019-04-29T06:26:02.740Z,4.30
2019-04-29T06:28:31.198Z,6.22
2019-04-29T06:31:00.226Z,4.10
2019-04-29T06:33:30.767Z,3.30
2019-04-29T06:35:59.203Z,3.77
2019-04-29T06:38:27.663Z,4.10
2019-04-29T06:40:56.369Z,3.58
2019-04-29T06:43:28.842Z,3.90
2019-04-29T06:45:55.291Z,3.42
2019-04-29T06:48:24.640Z,4.67
2019-04-29T06:50:53.172Z,4.55
2019-04-29T06:53:23.273Z,5.47
2019-04-29T06:55:51.928Z,5.70
2019-04-29T06:58:20.585Z,8.88
2019-04-29T07:00:50.994Z,10.72
2019-04-29T07:03:20.872Z,5.25
2019-04-29T07:05:51.490Z,5.92
2019-04-29T07:08:20.230Z,7.08
2019-04-29T07:10:48.728Z,10.80
2019-04-29T07:13:17.963Z,8.53
2019-04-29T07:15:48.898Z,6.53
2019-04-29T07:18:18.435Z,5.67
2019-04-29T07:20:47.038Z,4.92
2019-04-29T07:23:15.743Z,6.80
2019-04-29T07:25:44.515Z,8.33
2019-04-29T07:28:13.769Z,5.97
2019-04-29T07:31:00.317Z,5.30
2019-04-29T07:33:13.558Z,3.98
2019-04-29T07:35:42.890Z,4.40
2019-04-29T07:38:12.364Z,5.55
2019-04-29T07:40:43.280Z,5.55
2019-04-29T07:43:11.217Z,5.12
2019-04-29T07:45:50.338Z,8.35
2019-04-29T07:48:19.138Z,4.62
2019-04-29T07:50:47.736Z,5.45
2019-04-29T07:53:16.331Z,5.53
2019-04-29T07:55:44.928Z,5.53
2019-04-29T07:58:13.546Z,5.33
2019-04-29T08:00:44.628Z,4.80
2019-04-29T08:03:12.419Z,7.83
2019-04-29T08:05:41.826Z,5.72
2019-04-29T08:08:10.461Z,5.70
2019-04-29T08:10:53.570Z,5.17
2019-04-29T08:13:09.543Z,5.03
2019-04-29T08:15:41.632Z,3.83
2019-04-29T08:18:11.254Z,4.25
2019-04-29T08:20:41.835Z,5.17
2019-04-29T08:23:10.447Z,5.25
2019-04-29T08:25:38.978Z,4.08
2019-04-29T08:28:07.577Z,4.15
2019-04-29T08:30:36.233Z,4.47
2019-04-29T08:33:07.481Z,4.50
2019-04-29T08:35:36.866Z,4.30
2019-04-29T08:38:05.664Z,4.08
2019-04-29T08:40:34.480Z,4.10
2019-04-29T08:43:07.731Z,4.58
2019-04-29T08:45:40.597Z,5.33
2019-04-29T08:48:09.185Z,5.60
2019-04-29T08:50:37.858Z,6.60
2019-04-29T08:53:06.492Z,4.85
2019-04-29T08:55:36.550Z,6.22
2019-04-29T08:58:06.908Z,5.92
2019-04-29T09:00:36.002Z,8.70
2019-04-29T09:03:04.903Z,8.80
2019-04-29T09:05:33.364Z,6.25
2019-04-29T09:08:01.999Z,4.28
2019-04-29T09:10:32.990Z,4.40
2019-04-29T09:13:00.791Z,4.75
2019-04-29T09:15:29.258Z,4.60
2019-04-29T09:17:57.791Z,5.42
2019-04-29T09:20:26.329Z,3.95
2019-04-29T09:22:59.301Z,3.67
2019-04-29T09:25:29.591Z,4.58
2019-04-29T09:28:15.116Z,4.80
2019-04-29T09:30:42.417Z,6.17
2019-04-29T09:33:13.049Z,5.03
2019-04-29T09:35:41.353Z,4.15
2019-04-29T09:38:10.046Z,5.25
2019-04-29T09:40:40.356Z,5.75
2019-04-29T09:43:28.562Z,4.25
2019-04-29T09:46:10.926Z,5.10
2019-04-29T09:48:39.452Z,4.50
2019-04-29T09:51:17.129Z,4.75
2019-04-29T09:53:38.385Z,4.53
2019-04-29T09:56:06.984Z,4.67
2019-04-29T09:58:35.519Z,3.50
2019-04-29T10:01:18.936Z,3.45
2019-04-29T10:03:56.362Z,3.95
2019-04-29T10:06:26.607Z,3.72
2019-04-29T10:08:55.223Z,4.20
2019-04-29T10:11:23.827Z,5.25
2019-04-29T10:13:52.540Z,5.65
2019-04-29T10:16:31.774Z,6.60
2019-04-29T10:19:05.304Z,6.80
2019-04-29T10:21:31.495Z,5.00
2019-04-29T10:23:59.950Z,5.67
2019-04-29T10:26:28.620Z,5.55
2019-04-29T10:28:58.791Z,5.03
2019-04-29T10:31:32.582Z,5.22
2019-04-29T10:34:01.260Z,6.75
2019-04-29T10:36:29.998Z,5.60
2019-04-29T10:39:00.271Z,6.08
2019-04-29T10:41:40.450Z,6.50
2019-04-29T10:44:26.663Z,5.40
2019-04-29T10:47:02.940Z,6.65
2019-04-29T10:49:34.912Z,5.95
2019-04-29T10:52:04.643Z,5.72
2019-04-29T10:54:34.006Z,5.25
2019-04-29T10:57:02.788Z,4.42
2019-04-29T10:59:35.962Z,5.47
2019-04-29T11:02:26.841Z,6.10
2019-04-29T11:05:02.502Z,5.62
2019-04-29T11:07:44.173Z,5.35
2019-04-29T11:10:26.832Z,5.20
2019-04-29T11:12:55.894Z,5.10
2019-04-29T11:15:32.501Z,4.80
2019-04-29T11:18:03.328Z,5.65
2019-04-29T11:20:30.845Z,5.45
2019-04-29T11:23:09.312Z,5.70
2019-04-29T11:25:42.646Z,4.90
2019-04-29T11:28:12.002Z,6.85
2019-04-29T11:30:41.660Z,13.78
2019-04-29T11:33:11.842Z,9.03
2019-04-29T11:35:59.095Z,12.25
2019-04-29T11:38:33.457Z,7.67
2019-04-29T11:40:59.369Z,10.13
2019-04-29T11:43:28.404Z,7.22
2019-04-29T11:45:57.034Z,7.25
2019-04-29T11:48:25.722Z,10.80
2019-04-29T11:50:56.809Z,14.40
2019-04-29T11:53:25.411Z,8.45
2019-04-29T11:55:57.120Z,12.88
2019-04-29T11:58:26.096Z,10.40
2019-04-29T12:01:08.858Z,15.20
2019-04-29T12:03:43.057Z,9.60
2019-04-29T12:06:16.512Z,8.88
2019-04-29T12:08:48.022Z,8.10
2019-04-29T12:11:15.560Z,7.92
2019-04-29T12:13:48.544Z,11.03
2019-04-29T12:16:24.582Z,7.67
2019-04-29T12:18:53.744Z,10.82
2019-04-29T12:21:25.639Z,9.30
2019-04-29T12:23:55.987Z,9.68
2019-04-29T12:26:24.824Z,10.95
2019-04-29T12:28:53.688Z,8.73
2019-04-29T12:31:26.580Z,8.35
2019-04-29T12:33:59.346Z,19.92
2019-04-29T12:36:27.882Z,109.00
2019-04-29T12:39:03.914Z,55.30
2019-04-29T12:41:50.618Z,30.50
2019-04-29T12:44:34.377Z,19.77
2019-04-29T12:46:55.737Z,12.65
2019-04-29T12:49:24.412Z,9.90
2019-04-29T12:51:52.956Z,7.65
2019-04-29T12:54:21.596Z,6.67
2019-04-29T12:56:50.233Z,25.80
2019-04-29T12:59:18.848Z,25.55
2019-04-29T13:01:58.044Z,16.90
2019-04-29T13:04:39.185Z,8.25
2019-04-29T13:07:18.606Z,12.05
2019-04-29T13:09:48.866Z,18.98
2019-04-29T13:12:19.905Z,24.43
2019-04-29T13:15:07.876Z,26.42
2019-04-29T13:17:45.466Z,15.60
2019-04-29T13:20:14.459Z,15.38
2019-04-29T13:22:43.008Z,38.60
2019-04-29T13:25:15.650Z,31.97
2019-04-29T13:27:42.259Z,14.53
2019-04-29T13:30:16.028Z,10.50
2019-04-29T13:32:43.176Z,12.68
2019-04-29T13:35:12.893Z,11.20
2019-04-29T13:37:41.729Z,28.25
2019-04-29T13:40:12.195Z,21.90
2019-04-29T13:42:48.476Z,20.08
2019-04-29T13:45:14.899Z,23.60
2019-04-29T13:48:07.116Z,20.05
2019-04-29T13:50:44.410Z,15.10
2019-04-29T13:53:16.579Z,23.30
2019-04-29T13:55:48.188Z,37.93
2019-04-29T13:58:13.732Z,31.00
2019-04-29T14:01:00.068Z,24.02
2019-04-29T14:03:37.298Z,22.20
2019-04-29T14:06:07.489Z,21.93
2019-04-29T14:08:36.223Z,24.75
2019-04-29T14:11:05.198Z,21.05
2019-04-29T14:13:33.921Z,27.22
2019-04-29T14:16:02.501Z,25.62
2019-04-29T14:18:34.807Z,23.00
2019-04-29T14:21:01.476Z,19.65
2019-04-29T14:23:30.088Z,21.40
2019-04-29T14:25:58.670Z,20.02
2019-04-29T14:28:27.325Z,18.00
2019-04-29T14:30:56.077Z,15.70
2019-04-29T14:33:27.081Z,15.50
2019-04-29T14:35:59.805Z,14.20
2019-04-29T14:38:28.434Z,13.20
2019-04-29T14:40:57.070Z,11.78
2019-04-29T14:43:36.299Z,15.88
2019-04-29T14:46:15.712Z,13.18
2019-04-29T14:48:42.882Z,10.23
2019-04-29T14:51:12.066Z,14.18
2019-04-29T14:53:40.641Z,16.05
2019-04-29T14:56:09.213Z,12.93
2019-04-29T14:58:37.848Z,16.90
2019-04-29T15:01:24.629Z,18.45
2019-04-29T15:04:00.679Z,13.32
2019-04-29T15:06:29.651Z,12.65
2019-04-29T15:08:58.548Z,17.37
2019-04-29T15:11:31.885Z,13.75
2019-04-29T15:14:22.972Z,14.23
2019-04-29T15:16:49.555Z,14.55
2019-04-29T15:19:28.715Z,20.43
2019-04-29T15:21:59.226Z,16.07
2019-04-29T15:24:32.449Z,11.57
2019-04-29T15:26:57.987Z,12.53
2019-04-29T15:29:26.530Z,15.63
2019-04-29T15:31:55.003Z,18.35
2019-04-29T15:34:23.509Z,19.02
2019-04-29T15:36:52.094Z,11.63
2019-04-29T15:39:20.941Z,10.95
2019-04-29T15:41:53.883Z,11.03
2019-04-29T15:44:23.041Z,14.28
2019-04-29T15:46:51.138Z,10.43
2019-04-29T15:49:24.107Z,10.08
2019-04-29T15:51:51.067Z,12.47
2019-04-29T15:54:19.874Z,13.45
2019-04-29T15:56:48.735Z,12.55
2019-04-29T15:59:17.679Z,12.95
2019-04-29T16:01:46.447Z,11.53
2019-04-29T16:04:27.783Z,13.32
2019-04-29T16:07:17.634Z,14.75
2019-04-29T16:09:51.590Z,11.60
2019-04-29T16:12:19.333Z,13.70
2019-04-29T16:14:49.143Z,11.75
2019-04-29T16:17:20.719Z,11.55
2019-04-29T16:19:48.386Z,11.85
2019-04-29T16:22:19.746Z,11.93
2019-04-29T16:24:47.328Z,14.90
2019-04-29T16:27:16.141Z,16.05
2019-04-29T16:29:46.151Z,15.20
2019-04-29T16:32:16.750Z,12.00
2019-04-29T16:34:47.016Z,11.75
2019-04-29T16:37:19.180Z,14.03
2019-04-29T16:39:45.882Z,15.03
2019-04-29T16:42:19.106Z,13.88
2019-04-29T16:44:47.647Z,11.00
2019-04-29T16:47:16.841Z,11.50
2019-04-29T16:49:45.627Z,11.85
2019-04-29T16:52:14.328Z,10.58
2019-04-29T16:54:42.998Z,10.25
2019-04-29T16:57:11.541Z,12.45
2019-04-29T16:59:40.150Z,10.45
2019-04-29T17:02:09.067Z,13.20
2019-04-29T17:04:37.633Z,11.28
2019-04-29T17:07:14.062Z,12.93
2019-04-29T17:09:53.354Z,12.98
2019-04-29T17:12:22.416Z,13.78
2019-04-29T17:15:04.137Z,12.35
2019-04-29T17:17:28.893Z,13.55
2019-04-29T17:19:53.255Z,14.87
2019-04-29T17:22:25.887Z,12.35
2019-04-29T17:24:52.466Z,16.10
2019-04-29T17:27:41.201Z,17.02
2019-04-29T17:30:23.585Z,26.57
2019-04-29T17:33:09.324Z,25.68
2019-04-29T17:35:46.842Z,18.75
2019-04-29T17:38:09.542Z,23.22
2019-04-29T17:40:50.496Z,16.85
2019-04-29T17:43:27.106Z,20.37
2019-04-29T17:45:57.329Z,20.90
2019-04-29T17:48:36.371Z,20.82
2019-04-29T17:51:07.501Z,28.30
2019-04-29T17:53:37.764Z,26.33
2019-04-29T17:56:08.445Z,24.85
2019-04-29T17:58:43.867Z,29.70
2019-04-29T18:01:26.056Z,26.10
2019-04-29T18:04:11.790Z,35.43
2019-04-29T18:06:40.658Z,27.93
2019-04-29T18:09:26.102Z,20.55
2019-04-29T18:11:57.564Z,19.60
2019-04-29T18:14:30.854Z,25.02
2019-04-29T18:16:55.874Z,26.23
2019-04-29T18:19:30.786Z,21.68
2019-04-29T18:22:17.371Z,32.95
2019-04-29T18:24:59.368Z,26.33
2019-04-29T18:27:41.743Z,21.12
2019-04-29T18:30:12.318Z,20.25
2019-04-29T18:32:46.633Z,18.87
2019-04-29T18:35:12.596Z,22.58
2019-04-29T18:37:41.063Z,18.30
2019-04-29T18:40:10.000Z,19.98
2019-04-29T18:42:43.166Z,19.73
2019-04-29T18:45:09.488Z,27.42
2019-04-29T18:47:38.867Z,19.45
2019-04-29T18:50:08.971Z,18.40
2019-04-29T18:52:37.588Z,17.45
2019-04-29T18:55:07.659Z,16.62
2019-04-29T18:57:36.327Z,19.82
2019-04-29T19:00:12.730Z,19.25
2019-04-29T19:02:45.390Z,18.55
2019-04-29T19:05:17.312Z,19.65
2019-04-29T19:07:55.029Z,21.00
2019-04-29T19:10:18.632Z,24.00
2019-04-29T19:12:57.402Z,24.07
2019-04-29T19:15:18.444Z,26.97
2019-04-29T19:17:58.720Z,23.60
2019-04-29T19:20:18.670Z,26.97
2019-04-29T19:22:47.455Z,24.82
2019-04-29T19:25:16.374Z,26.50
2019-04-29T19:27:45.524Z,23.20
2019-04-29T19:30:20.865Z,25.35
2019-04-29T19:32:46.896Z,29.87
2019-04-29T19:35:17.001Z,33.58
2019-04-29T19:37:45.935Z,41.35
2019-04-29T19:40:15.166Z,38.73
2019-04-29T19:42:46.897Z,46.65
2019-04-29T19:45:17.160Z,44.77
2019-04-29T19:47:52.018Z,51.60
2019-04-29T19:50:19.529Z,54.03
2019-04-29T19:52:47.539Z,75.32
2019-04-29T19:55:16.183Z,54.77
2019-04-29T19:57:51.552Z,62.33
2019-04-29T20:00:17.779Z,57.93
2019-04-29T20:02:50.134Z,35.40
2019-04-29T20:05:18.355Z,25.27
2019-04-29T20:07:50.746Z,32.95
2019-04-29T20:10:18.942Z,32.50
2019-04-29T20:12:53.095Z,30.88
2019-04-29T20:15:19.064Z,27.10
2019-04-29T20:18:07.975Z,23.65
2019-04-29T20:20:41.883Z,22.00
2019-04-29T20:23:10.919Z,26.87
2019-04-29T20:25:39.937Z,29.75
2019-04-29T20:28:17.014Z,31.15
2019-04-29T20:30:39.548Z,23.87
2019-04-29T20:33:11.387Z,24.47
2019-04-29T20:35:40.479Z,23.40
2019-04-29T20:38:09.393Z,40.15
2019-04-29T20:40:42.825Z,40.80
2019-04-29T20:43:08.734Z,44.35
2019-04-29T20:45:37.654Z,43.60
2019-04-29T20:48:06.792Z,41.92
2019-04-29T20:50:35.741Z,37.73
2019-04-29T20:53:09.307Z,36.33
2019-04-29T20:55:38.599Z,36.38
2019-04-29T20:58:07.497Z,38.83
2019-04-29T21:00:38.366Z,37.98
2019-04-29T21:03:09.356Z,38.95
2019-04-29T21:05:47.472Z,38.78
2019-04-29T21:08:14.440Z,37.28
2019-04-29T21:10:43.047Z,37.78
2019-04-29T21:13:16.168Z,32.05
2019-04-29T21:15:51.958Z,36.85
2019-04-29T21:18:15.906Z,32.78
2019-04-29T21:20:45.179Z,36.68
2019-04-29T21:23:15.084Z,31.05
2019-04-29T21:25:43.557Z,34.58
2019-04-29T21:28:12.237Z,35.00
2019-04-29T21:30:42.713Z,31.80
2019-04-29T21:33:18.321Z,30.70
2019-04-29T21:35:49.532Z,35.60
2019-04-29T21:38:26.028Z,37.38
2019-04-29T21:40:56.143Z,30.68
2019-04-29T21:43:26.418Z,30.57
2019-04-29T21:45:55.659Z,31.02
2019-04-29T21:48:33.065Z,31.25
2019-04-29T21:50:55.706Z,31.95
2019-04-29T21:53:25.184Z,33.28
2019-04-29T21:55:55.442Z,35.55
2019-04-29T21:58:24.289Z,31.48
2019-04-29T22:00:55.896Z,45.40
2019-04-29T22:03:24.595Z,40.50
2019-04-29T22:05:55.241Z,48.00
2019-04-29T22:08:27.557Z,39.60
2019-04-29T22:10:58.116Z,40.38
2019-04-29T22:13:24.936Z,39.10
2019-04-29T22:15:53.450Z,37.13
2019-04-29T22:18:22.019Z,37.05
2019-04-29T22:20:50.604Z,38.33
2019-04-29T22:23:19.225Z,41.63
2019-04-29T22:25:47.827Z,36.48
2019-04-29T22:28:19.685Z,35.90
2019-04-29T22:30:49.931Z,37.08
2019-04-29T22:33:17.274Z,37.93
2019-04-29T22:35:45.818Z,35.63
2019-04-29T22:38:16.702Z,36.33
2019-04-29T22:40:45.351Z,31.02
2019-04-29T22:43:18.376Z,28.73
2019-04-29T22:45:47.187Z,36.68
2019-04-29T22:48:19.525Z,37.50
2019-04-29T22:50:47.392Z,31.75
2019-04-29T22:53:16.382Z,35.35
2019-04-29T22:55:45.322Z,36.03
2019-04-29T22:58:15.127Z,35.73
2019-04-29T23:00:43.866Z,36.40
2019-04-29T23:03:12.503Z,37.63
2019-04-29T23:05:41.178Z,36.42
2019-04-29T23:08:09.808Z,36.68
2019-04-29T23:10:38.601Z,41.13
2019-04-29T23:13:07.217Z,42.67
2019-04-29T23:15:35.965Z,46.80
2019-04-29T23:18:06.187Z,45.10
2019-04-29T23:20:52.752Z,44.48
2019-04-29T23:23:29.145Z,41.98
2019-04-29T23:25:55.692Z,36.25
2019-04-29T23:28:26.996Z,36.68
2019-04-29T23:30:54.857Z,38.65
2019-04-29T23:33:25.854Z,36.05
2019-04-29T23:35:53.767Z,38.58
2019-04-29T23:38:22.234Z,34.03
2019-04-29T23:40:54.441Z,35.85
2019-04-29T23:43:25.334Z,30.20
2019-04-29T23:45:55.974Z,36.63
2019-04-29T23:48:23.839Z,33.78
2019-04-29T23:50:56.633Z,31.73
2019-04-29T23:53:25.204Z,33.98
2019-04-29T23:55:53.149Z,32.48
2019-04-29T23:58:26.155Z,33.13
